Pagrindinis puslapis
METAR-TAF:

METAR-TAF

Oro uostai :

Izmiras, Turkija

platuma: 38-30N, ilguma: 027-01E, Aukštis: 5 m

METAR: trūkstamas

Laikas: 11:58 (08:58 UTC)

Prognozė

Ataskaita buvo paskelbta 1 valandą ir 18 minutes, ne 07:40 UTC
Prognozė galioja nuo 13 metu 09 UTC su 13 metu 18 UTC
Vėjas 9 kt iš Pietryčių
Matomumas 10 km arba daugiau
nėra debesų žemiau 1500 m ir nėra kamuolinių lietaus debesų
Tapsmas
nuo 13 metu 10 UTC su 13 metu 12 UTC
Vėjas 12 kt iš Pietvakarių

TAF: LTBL 130740Z 1309/1318 14009KT CAVOK BECMG 1310/1312 22012KT

Orai ataskaitas ir orų prognozės (METAR, TAF).

turimą stotys yra geltonos ir raudonos taškus žemėlapyje.

Perkelti pele per norėdami pamatyti stoties vardą.

Tada spustelėkite, norėdami matyti oro stebėjimo ir prognozės.

Norėdami pakeisti žemėlapį: spustelėkite ant žalios mygtukų su juodo kryžiaus žemyn,; žalią mygtuką su brūkšneliu, jei norite nutolinti; arba žalių rodyklių gretimoms žemėlapius.


METAR-TAF: